sensor_id;sensor_type;location;lat;lon;timestamp;pressure;altitude;pressure_sealevel;temperature;humidity
3294;BME280;1659;51.470;6.770;2023-03-03T00:00:26;102160.09;;;1.92;74.34
3294;BME280;1659;51.470;6.770;2023-03-03T00:02:53;102161.09;;;1.95;73.57
3294;BME280;1659;51.470;6.770;2023-03-03T00:05:19;102163.84;;;1.98;73.75
3294;BME280;1659;51.470;6.770;2023-03-03T00:07:47;102149.13;;;2.00;73.71
3294;BME280;1659;51.470;6.770;2023-03-03T00:10:14;102152.69;;;2.02;73.93
3294;BME280;1659;51.470;6.770;2023-03-03T00:12:45;102157.16;;;2.05;73.74
3294;BME280;1659;51.470;6.770;2023-03-03T00:15:14;102158.97;;;2.07;73.86
3294;BME280;1659;51.470;6.770;2023-03-03T00:17:41;102175.63;;;2.11;73.74
3294;BME280;1659;51.470;6.770;2023-03-03T00:20:29;102177.34;;;2.11;74.09
3294;BME280;1659;51.470;6.770;2023-03-03T00:22:57;102172.94;;;2.10;74.07
3294;BME280;1659;51.470;6.770;2023-03-03T00:25:33;102172.91;;;2.08;74.00
3294;BME280;1659;51.470;6.770;2023-03-03T00:28:00;102179.00;;;2.08;74.57
3294;BME280;1659;51.470;6.770;2023-03-03T00:30:30;102177.34;;;2.11;74.54
3294;BME280;1659;51.470;6.770;2023-03-03T00:32:56;102178.34;;;2.14;73.68
3294;BME280;1659;51.470;6.770;2023-03-03T00:35:25;102179.34;;;2.18;74.15
3294;BME280;1659;51.470;6.770;2023-03-03T00:37:57;102178.69;;;2.23;73.44
3294;BME280;1659;51.470;6.770;2023-03-03T00:40:25;102190.97;;;2.26;73.77
3294;BME280;1659;51.470;6.770;2023-03-03T00:42:53;102181.38;;;2.25;73.51
3294;BME280;1659;51.470;6.770;2023-03-03T00:45:26;102183.03;;;2.23;73.99
3294;BME280;1659;51.470;6.770;2023-03-03T00:47:53;102196.78;;;2.19;74.28
3294;BME280;1659;51.470;6.770;2023-03-03T00:50:29;102190.66;;;2.18;73.84
3294;BME280;1659;51.470;6.770;2023-03-03T00:53:05;102190.72;;;2.20;73.77
3294;BME280;1659;51.470;6.770;2023-03-03T00:55:33;102196.94;;;2.23;73.71
3294;BME280;1659;51.470;6.770;2023-03-03T00:58:00;102198.88;;;2.28;73.83
3294;BME280;1659;51.470;6.770;2023-03-03T01:00:27;102197.13;;;2.28;73.76
3294;BME280;1659;51.470;6.770;2023-03-03T01:02:53;102202.34;;;2.28;73.88
3294;BME280;1659;51.470;6.770;2023-03-03T01:05:20;102195.41;;;2.29;73.70
3294;BME280;1659;51.470;6.770;2023-03-03T01:07:47;102197.19;;;2.30;73.52
3294;BME280;1659;51.470;6.770;2023-03-03T01:10:15;102194.59;;;2.30;73.79
3294;BME280;1659;51.470;6.770;2023-03-03T01:12:41;102193.81;;;2.32;73.77
3294;BME280;1659;51.470;6.770;2023-03-03T01:15:09;102192.09;;;2.33;73.10
3294;BME280;1659;51.470;6.770;2023-03-03T01:17:36;102193.06;;;2.35;73.07
3294;BME280;1659;51.470;6.770;2023-03-03T01:20:05;102199.94;;;2.33;73.78
3294;BME280;1659;51.470;6.770;2023-03-03T01:22:32;102191.19;;;2.32;73.58
3294;BME280;1659;51.470;6.770;2023-03-03T01:24:58;102192.88;;;2.30;73.99
3294;BME280;1659;51.470;6.770;2023-03-03T01:27:26;102198.16;;;2.32;73.65
3294;BME280;1659;51.470;6.770;2023-03-03T01:29:53;102198.97;;;2.31;73.48
3294;BME280;1659;51.470;6.770;2023-03-03T01:32:20;102203.41;;;2.33;73.31
3294;BME280;1659;51.470;6.770;2023-03-03T01:34:47;102192.09;;;2.33;73.37
3294;BME280;1659;51.470;6.770;2023-03-03T01:37:13;102201.56;;;2.31;73.58
3294;BME280;1659;51.470;6.770;2023-03-03T01:39:40;102197.25;;;2.31;73.37
3294;BME280;1659;51.470;6.770;2023-03-03T01:42:06;102194.66;;;2.31;73.67
3294;BME280;1659;51.470;6.770;2023-03-03T01:44:34;102192.09;;;2.33;73.71
3294;BME280;1659;51.470;6.770;2023-03-03T01:47:04;102191.25;;;2.34;73.84
3294;BME280;1659;51.470;6.770;2023-03-03T01:49:34;102193.06;;;2.35;73.69
3294;BME280;1659;51.470;6.770;2023-03-03T01:52:03;102183.50;;;2.35;73.57
3294;BME280;1659;51.470;6.770;2023-03-03T01:54:39;102200.88;;;2.35;73.62
3294;BME280;1659;51.470;6.770;2023-03-03T01:57:11;102193.06;;;2.35;73.29
3294;BME280;1659;51.470;6.770;2023-03-03T01:59:43;102200.00;;;2.34;73.59
3294;BME280;1659;51.470;6.770;2023-03-03T02:02:11;102188.59;;;2.32;73.35
3294;BME280;1659;51.470;6.770;2023-03-03T02:04:38;102192.03;;;2.31;73.53
3294;BME280;1659;51.470;6.770;2023-03-03T02:07:06;102185.91;;;2.31;74.15
3294;BME280;1659;51.470;6.770;2023-03-03T02:09:41;102185.03;;;2.30;73.43
3294;BME280;1659;51.470;6.770;2023-03-03T02:12:11;102185.88;;;2.29;73.44
3294;BME280;1659;51.470;6.770;2023-03-03T02:14:40;102183.28;;;2.29;73.86
3294;BME280;1659;51.470;6.770;2023-03-03T02:17:07;102182.38;;;2.29;73.98
3294;BME280;1659;51.470;6.770;2023-03-03T02:19:41;102180.66;;;2.29;73.92
3294;BME280;1659;51.470;6.770;2023-03-03T02:22:13;102176.28;;;2.28;73.25
3294;BME280;1659;51.470;6.770;2023-03-03T02:24:44;102183.03;;;2.23;74.09
3294;BME280;1659;51.470;6.770;2023-03-03T02:27:14;102175.94;;;2.19;73.50
3294;BME280;1659;51.470;6.770;2023-03-03T02:29:41;102182.81;;;2.17;73.72
3294;BME280;1659;51.470;6.770;2023-03-03T02:32:08;102181.84;;;2.15;74.34
3294;BME280;1659;51.470;6.770;2023-03-03T02:34:45;102188.72;;;2.13;74.59
3294;BME280;1659;51.470;6.770;2023-03-03T02:37:12;102185.97;;;2.10;73.93
3294;BME280;1659;51.470;6.770;2023-03-03T02:39:38;102186.84;;;2.08;74.18
3294;BME280;1659;51.470;6.770;2023-03-03T02:42:07;102200.63;;;2.06;74.44
3294;BME280;1659;51.470;6.770;2023-03-03T02:44:37;102194.47;;;2.04;74.36
3294;BME280;1659;51.470;6.770;2023-03-03T02:47:04;102190.19;;;2.06;74.73
3294;BME280;1659;51.470;6.770;2023-03-03T02:49:33;102191.09;;;2.06;73.95
3294;BME280;1659;51.470;6.770;2023-03-03T02:52:00;102198.00;;;2.06;73.81
3294;BME280;1659;51.470;6.770;2023-03-03T02:54:29;102193.66;;;2.05;74.58
3294;BME280;1659;51.470;6.770;2023-03-03T02:56:56;102194.41;;;2.02;74.33
3294;BME280;1659;51.470;6.770;2023-03-03T02:59:22;102196.19;;;2.03;74.66
3294;BME280;1659;51.470;6.770;2023-03-03T03:01:50;102202.22;;;2.02;74.21
3294;BME280;1659;51.470;6.770;2023-03-03T03:04:19;102196.19;;;2.03;74.54
3294;BME280;1659;51.470;6.770;2023-03-03T03:06:46;102196.19;;;2.03;74.71
3294;BME280;1659;51.470;6.770;2023-03-03T03:09:14;102196.19;;;2.03;74.20
3294;BME280;1659;51.470;6.770;2023-03-03T03:11:41;102197.84;;;2.01;74.18
3294;BME280;1659;51.470;6.770;2023-03-03T03:14:09;102191.72;;;2.01;74.51
3294;BME280;1659;51.470;6.770;2023-03-03T03:16:36;102195.13;;;1.98;74.82
3294;BME280;1659;51.470;6.770;2023-03-03T03:19:05;102204.59;;;1.96;74.60
3294;BME280;1659;51.470;6.770;2023-03-03T03:21:32;102206.28;;;1.94;74.54
3294;BME280;1659;51.470;6.770;2023-03-03T03:23:59;102199.31;;;1.95;74.38
3294;BME280;1659;51.470;6.770;2023-03-03T03:26:25;102194.94;;;1.94;74.11
3294;BME280;1659;51.470;6.770;2023-03-03T03:28:52;102202.69;;;1.92;74.34
3294;BME280;1659;51.470;6.770;2023-03-03T03:31:20;102215.56;;;1.87;74.88
3294;BME280;1659;51.470;6.770;2023-03-03T03:33:47;102222.44;;;1.85;74.74
3294;BME280;1659;51.470;6.770;2023-03-03T03:36:15;102218.09;;;1.86;75.19
3294;BME280;1659;51.470;6.770;2023-03-03T03:38:42;102222.44;;;1.85;74.94
3294;BME280;1659;51.470;6.770;2023-03-03T03:41:10;102208.56;;;1.86;75.24
3294;BME280;1659;51.470;6.770;2023-03-03T03:43:37;102208.47;;;1.85;74.90
3294;BME280;1659;51.470;6.770;2023-03-03T03:46:03;102215.34;;;1.83;74.95
3294;BME280;1659;51.470;6.770;2023-03-03T03:48:30;102222.28;;;1.82;75.56
3294;BME280;1659;51.470;6.770;2023-03-03T03:50:57;102218.91;;;1.85;75.10
3294;BME280;1659;51.470;6.770;2023-03-03T03:53:24;102218.22;;;1.89;75.24
3294;BME280;1659;51.470;6.770;2023-03-03T03:55:51;102213.09;;;1.91;74.84
3294;BME280;1659;51.470;6.770;2023-03-03T03:58:18;102227.88;;;1.92;74.80
3294;BME280;1659;51.470;6.770;2023-03-03T04:00:46;102233.88;;;1.89;75.27
3294;BME280;1659;51.470;6.770;2023-03-03T04:03:12;102229.34;;;1.85;75.24
3294;BME280;1659;51.470;6.770;2023-03-03T04:05:39;102228.38;;;1.83;75.55
3294;BME280;1659;51.470;6.770;2023-03-03T04:08:06;102223.09;;;1.81;75.31
3294;BME280;1659;51.470;6.770;2023-03-03T04:10:34;102233.41;;;1.78;75.60
3294;BME280;1659;51.470;6.770;2023-03-03T04:13:01;102240.28;;;1.76;75.12
3294;BME280;1659;51.470;6.770;2023-03-03T04:15:27;102229.78;;;1.75;75.72
3294;BME280;1659;51.470;6.770;2023-03-03T04:17:54;102234.06;;;1.73;75.71
3294;BME280;1659;51.470;6.770;2023-03-03T04:20:20;102235.84;;;1.74;75.40
3294;BME280;1659;51.470;6.770;2023-03-03T04:22:47;102223.47;;;1.68;75.35
3294;BME280;1659;51.470;6.770;2023-03-03T04:25:15;102230.28;;;1.66;75.71
3294;BME280;1659;51.470;6.770;2023-03-03T04:27:44;102223.19;;;1.62;75.77
3294;BME280;1659;51.470;6.770;2023-03-03T04:30:11;102228.25;;;1.59;75.80
3294;BME280;1659;51.470;6.770;2023-03-03T04:32:38;102223.84;;;1.56;76.74
3294;BME280;1659;51.470;6.770;2023-03-03T04:35:05;102228.16;;;1.56;76.68
3294;BME280;1659;51.470;6.770;2023-03-03T04:37:32;102224.66;;;1.55;76.03
3294;BME280;1659;51.470;6.770;2023-03-03T04:39:58;102229.94;;;1.57;76.17
3294;BME280;1659;51.470;6.770;2023-03-03T04:42:25;102219.50;;;1.57;75.92
3294;BME280;1659;51.470;6.770;2023-03-03T04:44:54;102228.19;;;1.57;76.36
3294;BME280;1659;51.470;6.770;2023-03-03T04:47:21;102224.78;;;1.58;76.01
3294;BME280;1659;51.470;6.770;2023-03-03T04:49:47;102225.72;;;1.60;76.22
3294;BME280;1659;51.470;6.770;2023-03-03T04:52:14;102230.19;;;1.63;76.53
3294;BME280;1659;51.470;6.770;2023-03-03T04:54:40;102237.16;;;1.64;76.08
3294;BME280;1659;51.470;6.770;2023-03-03T04:57:07;102233.75;;;1.65;76.36
3294;BME280;1659;51.470;6.770;2023-03-03T04:59:34;102231.97;;;1.64;75.76
3294;BME280;1659;51.470;6.770;2023-03-03T05:02:02;102242.44;;;1.65;75.73
3294;BME280;1659;51.470;6.770;2023-03-03T05:04:29;102233.69;;;1.63;75.99
3294;BME280;1659;51.470;6.770;2023-03-03T05:06:56;102236.28;;;1.63;76.71
3294;BME280;1659;51.470;6.770;2023-03-03T05:09:22;102243.28;;;1.64;75.86
3294;BME280;1659;51.470;6.770;2023-03-03T05:11:49;102230.28;;;1.66;76.65
3294;BME280;1659;51.470;6.770;2023-03-03T05:14:16;102222.53;;;1.67;76.38
3294;BME280;1659;51.470;6.770;2023-03-03T05:16:42;102238.25;;;1.69;76.40
3294;BME280;1659;51.470;6.770;2023-03-03T05:19:10;102239.16;;;1.69;76.36
3294;BME280;1659;51.470;6.770;2023-03-03T05:21:37;102240.13;;;1.72;76.00
3294;BME280;1659;51.470;6.770;2023-03-03T05:24:06;102244.47;;;1.73;76.48
3294;BME280;1659;51.470;6.770;2023-03-03T05:26:33;102240.03;;;1.70;76.45
3294;BME280;1659;51.470;6.770;2023-03-03T05:28:59;102232.97;;;1.67;76.46
3294;BME280;1659;51.470;6.770;2023-03-03T05:31:26;102238.19;;;1.67;76.26
3294;BME280;1659;51.470;6.770;2023-03-03T05:33:53;102236.50;;;1.68;76.60
3294;BME280;1659;51.470;6.770;2023-03-03T05:36:21;102233.03;;;1.69;76.63
3294;BME280;1659;51.470;6.770;2023-03-03T05:38:47;102246.91;;;1.68;76.20
3294;BME280;1659;51.470;6.770;2023-03-03T05:41:14;102240.78;;;1.67;76.25
3294;BME280;1659;51.470;6.770;2023-03-03T05:43:40;102239.97;;;1.68;76.41
3294;BME280;1659;51.470;6.770;2023-03-03T05:46:07;102234.91;;;1.72;75.98
3294;BME280;1659;51.470;6.770;2023-03-03T05:48:33;102242.00;;;1.76;76.09
3294;BME280;1659;51.470;6.770;2023-03-03T05:51:00;102243.81;;;1.78;75.85
3294;BME280;1659;51.470;6.770;2023-03-03T05:53:28;102250.78;;;1.78;75.94
3294;BME280;1659;51.470;6.770;2023-03-03T05:55:54;102251.53;;;1.75;76.37
3294;BME280;1659;51.470;6.770;2023-03-03T05:58:21;102244.59;;;1.76;75.73
3294;BME280;1659;51.470;6.770;2023-03-03T06:00:48;102251.66;;;1.78;76.42
3294;BME280;1659;51.470;6.770;2023-03-03T06:03:14;102253.44;;;1.79;75.68
3294;BME280;1659;51.470;6.770;2023-03-03T06:05:42;102251.78;;;1.81;75.66
3294;BME280;1659;51.470;6.770;2023-03-03T06:08:08;102239.66;;;1.82;76.36
3294;BME280;1659;51.470;6.770;2023-03-03T06:10:36;102250.09;;;1.82;75.50
3294;BME280;1659;51.470;6.770;2023-03-03T06:13:03;102251.03;;;1.84;76.16
3294;BME280;1659;51.470;6.770;2023-03-03T06:15:29;102257.13;;;1.84;76.08
3294;BME280;1659;51.470;6.770;2023-03-03T06:17:56;102255.25;;;1.80;76.39
3294;BME280;1659;51.470;6.770;2023-03-03T06:20:22;102258.53;;;1.76;76.57
3294;BME280;1659;51.470;6.770;2023-03-03T06:22:49;102271.38;;;1.72;76.29
3294;BME280;1659;51.470;6.770;2023-03-03T06:25:16;102275.69;;;1.71;76.04
3294;BME280;1659;51.470;6.770;2023-03-03T06:27:44;102279.19;;;1.72;76.09
3294;BME280;1659;51.470;6.770;2023-03-03T06:30:10;102282.88;;;1.77;76.35
3294;BME280;1659;51.470;6.770;2023-03-03T06:32:38;102279.00;;;1.88;76.48
3294;BME280;1659;51.470;6.770;2023-03-03T06:35:05;102281.59;;;1.88;76.12
3294;BME280;1659;51.470;6.770;2023-03-03T06:37:32;102283.34;;;1.87;76.71
3294;BME280;1659;51.470;6.770;2023-03-03T06:39:58;102284.16;;;1.86;76.10
3294;BME280;1659;51.470;6.770;2023-03-03T06:42:25;102292.81;;;1.85;76.54
3294;BME280;1659;51.470;6.770;2023-03-03T06:44:53;102294.50;;;1.85;76.64
3294;BME280;1659;51.470;6.770;2023-03-03T06:47:19;102296.31;;;1.86;76.36
3294;BME280;1659;51.470;6.770;2023-03-03T06:49:46;102303.28;;;1.87;76.66
3294;BME280;1659;51.470;6.770;2023-03-03T06:52:15;102298.91;;;1.86;76.10
3294;BME280;1659;51.470;6.770;2023-03-03T06:54:43;102303.28;;;1.87;76.60
3294;BME280;1659;51.470;6.770;2023-03-03T06:57:16;102309.41;;;1.87;75.81
3294;BME280;1659;51.470;6.770;2023-03-03T06:59:43;102303.28;;;1.87;75.94
3294;BME280;1659;51.470;6.770;2023-03-03T07:02:16;102310.22;;;1.86;76.66
3294;BME280;1659;51.470;6.770;2023-03-03T07:04:43;102317.22;;;1.87;76.09
3294;BME280;1659;51.470;6.770;2023-03-03T07:07:16;102315.63;;;1.91;76.33
3294;BME280;1659;51.470;6.770;2023-03-03T07:09:43;102315.78;;;1.94;76.12
3294;BME280;1659;51.470;6.770;2023-03-03T07:12:14;102320.97;;;1.94;76.21
3294;BME280;1659;51.470;6.770;2023-03-03T07:14:44;102314.91;;;1.95;76.00
3294;BME280;1659;51.470;6.770;2023-03-03T07:17:15;102312.44;;;1.98;75.78
3294;BME280;1659;51.470;6.770;2023-03-03T07:19:44;102315.13;;;2.00;75.65
3294;BME280;1659;51.470;6.770;2023-03-03T07:22:14;102315.13;;;2.00;76.27
3294;BME280;1659;51.470;6.770;2023-03-03T07:24:42;102308.25;;;2.02;75.57
3294;BME280;1659;51.470;6.770;2023-03-03T07:27:12;102317.09;;;2.05;76.13
3294;BME280;1659;51.470;6.770;2023-03-03T07:29:39;102317.22;;;2.08;75.41
3294;BME280;1659;51.470;6.770;2023-03-03T07:32:23;102325.19;;;2.12;75.65
3294;BME280;1659;51.470;6.770;2023-03-03T07:34:51;102336.69;;;2.17;75.83
3294;BME280;1659;51.470;6.770;2023-03-03T07:37:28;102335.09;;;2.20;75.03
3294;BME280;1659;51.470;6.770;2023-03-03T07:39:56;102332.53;;;2.22;75.73
3294;BME280;1659;51.470;6.770;2023-03-03T07:42:25;102344.75;;;2.23;75.43
3294;BME280;1659;51.470;6.770;2023-03-03T07:44:54;102342.22;;;2.24;75.30
3294;BME280;1659;51.470;6.770;2023-03-03T07:47:24;102346.63;;;2.27;75.01
3294;BME280;1659;51.470;6.770;2023-03-03T07:49:53;102346.63;;;2.27;75.14
3294;BME280;1659;51.470;6.770;2023-03-03T07:52:24;102347.41;;;2.24;74.89
3294;BME280;1659;51.470;6.770;2023-03-03T07:54:52;102358.72;;;2.25;75.25
3294;BME280;1659;51.470;6.770;2023-03-03T07:57:22;102354.44;;;2.25;75.51
3294;BME280;1659;51.470;6.770;2023-03-03T07:59:52;102366.69;;;2.28;75.19
3294;BME280;1659;51.470;6.770;2023-03-03T08:02:36;102358.94;;;2.30;75.13
3294;BME280;1659;51.470;6.770;2023-03-03T08:05:26;102367.66;;;2.30;74.84
3294;BME280;1659;51.470;6.770;2023-03-03T08:07:53;102372.84;;;2.30;75.18
3294;BME280;1659;51.470;6.770;2023-03-03T08:10:45;102369.50;;;2.33;75.39
3294;BME280;1659;51.470;6.770;2023-03-03T08:13:16;102372.22;;;2.36;74.92
3294;BME280;1659;51.470;6.770;2023-03-03T08:15:44;102372.28;;;2.37;75.28
3294;BME280;1659;51.470;6.770;2023-03-03T08:18:21;102378.22;;;2.33;75.29
3294;BME280;1659;51.470;6.770;2023-03-03T08:20:49;102382.66;;;2.36;74.91
3294;BME280;1659;51.470;6.770;2023-03-03T08:23:17;102384.56;;;2.40;74.47
3294;BME280;1659;51.470;6.770;2023-03-03T08:25:45;102380.38;;;2.43;74.45
3294;BME280;1659;51.470;6.770;2023-03-03T08:28:12;102381.38;;;2.47;74.56
3294;BME280;1659;51.470;6.770;2023-03-03T08:30:40;102383.28;;;2.51;74.50
3294;BME280;1659;51.470;6.770;2023-03-03T08:33:07;102382.41;;;2.51;74.33
3294;BME280;1659;51.470;6.770;2023-03-03T08:35:35;102390.22;;;2.51;74.67
3294;BME280;1659;51.470;6.770;2023-03-03T08:38:01;102384.19;;;2.52;74.50
3294;BME280;1659;51.470;6.770;2023-03-03T08:40:28;102390.22;;;2.51;74.66
3294;BME280;1659;51.470;6.770;2023-03-03T08:42:55;102395.44;;;2.51;74.94
3294;BME280;1659;51.470;6.770;2023-03-03T08:45:22;102387.69;;;2.52;74.93
3294;BME280;1659;51.470;6.770;2023-03-03T08:47:49;102398.19;;;2.54;74.96
3294;BME280;1659;51.470;6.770;2023-03-03T08:50:16;102400.00;;;2.56;74.25
3294;BME280;1659;51.470;6.770;2023-03-03T08:52:44;102395.75;;;2.58;74.83
3294;BME280;1659;51.470;6.770;2023-03-03T08:55:11;102406.38;;;2.63;74.09
3294;BME280;1659;51.470;6.770;2023-03-03T08:57:38;102403.91;;;2.66;74.78
3294;BME280;1659;51.470;6.770;2023-03-03T09:00:06;102404.03;;;2.69;74.38
3294;BME280;1659;51.470;6.770;2023-03-03T09:02:33;102405.06;;;2.74;74.04
3294;BME280;1659;51.470;6.770;2023-03-03T09:05:00;102398.22;;;2.76;74.37
3294;BME280;1659;51.470;6.770;2023-03-03T09:07:26;102399.91;;;2.76;74.14
3294;BME280;1659;51.470;6.770;2023-03-03T09:09:54;102412.16;;;2.77;74.46
3294;BME280;1659;51.470;6.770;2023-03-03T09:12:26;102412.28;;;2.80;74.37
3294;BME280;1659;51.470;6.770;2023-03-03T09:14:55;102419.16;;;2.78;74.27
3294;BME280;1659;51.470;6.770;2023-03-03T09:17:25;102418.38;;;2.80;74.34
3294;BME280;1659;51.470;6.770;2023-03-03T09:19:54;102417.59;;;2.83;73.72
3294;BME280;1659;51.470;6.770;2023-03-03T09:22:24;102418.63;;;2.87;73.94
3294;BME280;1659;51.470;6.770;2023-03-03T09:24:54;102423.97;;;2.90;73.59
3294;BME280;1659;51.470;6.770;2023-03-03T09:27:26;102421.28;;;2.88;74.21
3294;BME280;1659;51.470;6.770;2023-03-03T09:29:53;102423.06;;;2.89;73.86
3294;BME280;1659;51.470;6.770;2023-03-03T09:32:29;102419.75;;;2.93;73.77
3294;BME280;1659;51.470;6.770;2023-03-03T09:34:56;102418.16;;;2.97;73.98
3294;BME280;1659;51.470;6.770;2023-03-03T09:37:27;102416.53;;;3.00;73.99
3294;BME280;1659;51.470;6.770;2023-03-03T09:39:57;102423.69;;;3.05;73.80
3294;BME280;1659;51.470;6.770;2023-03-03T09:42:46;102426.56;;;3.12;73.51
3294;BME280;1659;51.470;6.770;2023-03-03T09:45:32;102427.59;;;3.16;73.62
3294;BME280;1659;51.470;6.770;2023-03-03T09:48:21;102439.97;;;3.20;73.42
3294;BME280;1659;51.470;6.770;2023-03-03T09:50:59;102425.09;;;3.19;73.90
3294;BME280;1659;51.470;6.770;2023-03-03T09:53:52;102431.34;;;3.22;73.68
3294;BME280;1659;51.470;6.770;2023-03-03T09:56:24;102434.06;;;3.26;73.54
3294;BME280;1659;51.470;6.770;2023-03-03T09:59:02;102435.00;;;3.28;73.71
3294;BME280;1659;51.470;6.770;2023-03-03T10:01:49;102436.00;;;3.31;73.57
3294;BME280;1659;51.470;6.770;2023-03-03T10:04:38;102434.34;;;3.33;73.22
3294;BME280;1659;51.470;6.770;2023-03-03T10:07:29;102447.53;;;3.36;73.10
3294;BME280;1659;51.470;6.770;2023-03-03T10:10:18;102436.25;;;3.37;73.08
3294;BME280;1659;51.470;6.770;2023-03-03T10:12:57;102443.44;;;3.43;72.96
3294;BME280;1659;51.470;6.770;2023-03-03T10:15:34;102448.06;;;3.50;72.82
3294;BME280;1659;51.470;6.770;2023-03-03T10:18:12;102442.09;;;3.54;72.86
3294;BME280;1659;51.470;6.770;2023-03-03T10:20:49;102444.50;;;3.48;72.62
3294;BME280;1659;51.470;6.770;2023-03-03T10:23:23;102447.19;;;3.50;73.18
3294;BME280;1659;51.470;6.770;2023-03-03T10:26:03;102447.31;;;3.54;73.13
3294;BME280;1659;51.470;6.770;2023-03-03T10:28:53;102447.56;;;3.61;72.83
3294;BME280;1659;51.470;6.770;2023-03-03T10:31:35;102451.25;;;3.66;72.88
3294;BME280;1659;51.470;6.770;2023-03-03T10:34:18;102456.59;;;3.69;72.75
3294;BME280;1659;51.470;6.770;2023-03-03T10:36:52;102454.91;;;3.71;72.51
3294;BME280;1659;51.470;6.770;2023-03-03T10:39:33;102455.00;;;3.74;72.28
3294;BME280;1659;51.470;6.770;2023-03-03T10:45:27;102454.38;;;3.80;72.47
3294;BME280;1659;51.470;6.770;2023-03-03T10:48:28;102453.63;;;3.84;72.19
3294;BME280;1659;51.470;6.770;2023-03-03T10:51:06;102465.94;;;3.86;72.39
3294;BME280;1659;51.470;6.770;2023-03-03T10:53:40;102459.84;;;3.87;72.29
3294;BME280;1659;51.470;6.770;2023-03-03T10:56:24;102451.13;;;3.87;72.28
3294;BME280;1659;51.470;6.770;2023-03-03T10:59:14;102453.81;;;3.88;72.32
3294;BME280;1659;51.470;6.770;2023-03-03T11:01:50;102453.88;;;3.90;72.13
3294;BME280;1659;51.470;6.770;2023-03-03T11:04:43;102451.28;;;3.91;72.00
3294;BME280;1659;51.470;6.770;2023-03-03T11:07:18;102457.47;;;3.93;72.26
3294;BME280;1659;51.470;6.770;2023-03-03T11:10:00;102462.78;;;3.96;71.94
3294;BME280;1659;51.470;6.770;2023-03-03T11:12:40;102458.53;;;3.99;71.99
3294;BME280;1659;51.470;6.770;2023-03-03T11:15:39;102455.25;;;4.04;71.85
3294;BME280;1659;51.470;6.770;2023-03-03T11:18:17;102455.44;;;4.10;71.77
3294;BME280;1659;51.470;6.770;2023-03-03T11:20:54;102457.50;;;4.19;71.91
3294;BME280;1659;51.470;6.770;2023-03-03T11:24:00;102454.22;;;4.25;71.49
3294;BME280;1659;51.470;6.770;2023-03-03T11:26:37;102460.53;;;4.31;71.49
3294;BME280;1659;51.470;6.770;2023-03-03T11:29:25;102449.47;;;4.40;71.39
3294;BME280;1659;51.470;6.770;2023-03-03T11:31:56;102452.22;;;4.43;71.21
3294;BME280;1659;51.470;6.770;2023-03-03T11:34:46;102440.91;;;4.44;71.05
3294;BME280;1659;51.470;6.770;2023-03-03T11:37:21;102441.03;;;4.49;71.11
3294;BME280;1659;51.470;6.770;2023-03-03T11:39:52;102438.34;;;4.46;70.81
3294;BME280;1659;51.470;6.770;2023-03-03T11:42:24;102445.28;;;4.45;71.14
3294;BME280;1659;51.470;6.770;2023-03-03T11:44:55;102436.72;;;4.49;70.97
3294;BME280;1659;51.470;6.770;2023-03-03T11:47:27;102434.34;;;4.57;70.88
3294;BME280;1659;51.470;6.770;2023-03-03T11:50:00;102428.47;;;4.64;70.65
3294;BME280;1659;51.470;6.770;2023-03-03T11:52:31;102426.09;;;4.72;70.45
3294;BME280;1659;51.470;6.770;2023-03-03T11:55:08;102425.31;;;4.75;70.59
3294;BME280;1659;51.470;6.770;2023-03-03T11:57:40;102423.81;;;4.83;70.15
3294;BME280;1659;51.470;6.770;2023-03-03T12:00:19;102422.25;;;4.88;70.02
3294;BME280;1659;51.470;6.770;2023-03-03T12:02:59;102429.16;;;4.86;70.19
3294;BME280;1659;51.470;6.770;2023-03-03T12:05:46;102419.50;;;4.85;70.08
3294;BME280;1659;51.470;6.770;2023-03-03T12:08:29;102421.31;;;4.87;70.08
3294;BME280;1659;51.470;6.770;2023-03-03T12:11:03;102419.75;;;4.92;69.63
3294;BME280;1659;51.470;6.770;2023-03-03T12:13:41;102414.72;;;4.99;69.65
3294;BME280;1659;51.470;6.770;2023-03-03T12:16:14;102414.06;;;5.06;69.55
3294;BME280;1659;51.470;6.770;2023-03-03T12:19:00;102409.94;;;5.14;69.11
3294;BME280;1659;51.470;6.770;2023-03-03T12:21:38;102409.22;;;5.20;69.19
3294;BME280;1659;51.470;6.770;2023-03-03T12:24:16;102401.56;;;5.26;69.18
3294;BME280;1659;51.470;6.770;2023-03-03T12:26:52;102406.16;;;5.35;68.75
3294;BME280;1659;51.470;6.770;2023-03-03T12:29:26;102400.91;;;5.35;68.94
3294;BME280;1659;51.470;6.770;2023-03-03T12:32:01;102405.41;;;5.39;68.91
3294;BME280;1659;51.470;6.770;2023-03-03T12:34:37;102400.53;;;5.51;68.75
3294;BME280;1659;51.470;6.770;2023-03-03T12:37:40;102398.38;;;5.68;68.73
3294;BME280;1659;51.470;6.770;2023-03-03T12:40:16;102388.38;;;5.86;68.29
3294;BME280;1659;51.470;6.770;2023-03-03T12:43:05;102393.09;;;5.98;68.18
3294;BME280;1659;51.470;6.770;2023-03-03T12:45:41;102386.38;;;6.08;67.44
3294;BME280;1659;51.470;6.770;2023-03-03T12:48:15;102389.53;;;6.30;67.43
3294;BME280;1659;51.470;6.770;2023-03-03T12:50:51;102383.13;;;6.93;66.93
3294;BME280;1659;51.470;6.770;2023-03-03T12:53:40;102378.25;;;8.00;65.96
3294;BME280;1659;51.470;6.770;2023-03-03T12:56:12;102372.69;;;8.93;65.29
3294;BME280;1659;51.470;6.770;2023-03-03T12:58:48;102372.56;;;9.49;63.93
3294;BME280;1659;51.470;6.770;2023-03-03T13:01:33;102378.91;;;9.70;63.15
3294;BME280;1659;51.470;6.770;2023-03-03T13:04:04;102379.91;;;9.78;62.85
3294;BME280;1659;51.470;6.770;2023-03-03T13:06:39;102378.97;;;9.74;62.42
3294;BME280;1659;51.470;6.770;2023-03-03T13:09:18;102384.09;;;9.59;62.26
3294;BME280;1659;51.470;6.770;2023-03-03T13:12:03;102379.59;;;9.50;61.99
3294;BME280;1659;51.470;6.770;2023-03-03T13:14:39;102375.38;;;9.64;62.51
3294;BME280;1659;51.470;6.770;2023-03-03T13:17:20;102370.84;;;10.42;61.49
3294;BME280;1659;51.470;6.770;2023-03-03T13:19:51;102372.22;;;11.31;60.30
3294;BME280;1659;51.470;6.770;2023-03-03T13:22:30;102362.72;;;12.27;58.77
3294;BME280;1659;51.470;6.770;2023-03-03T13:25:06;102352.00;;;12.98;56.93
3294;BME280;1659;51.470;6.770;2023-03-03T13:27:37;102354.44;;;13.52;56.13
3294;BME280;1659;51.470;6.770;2023-03-03T13:30:15;102347.19;;;13.82;54.80
3294;BME280;1659;51.470;6.770;2023-03-03T13:32:45;102344.06;;;14.38;54.15
3294;BME280;1659;51.470;6.770;2023-03-03T13:35:19;102344.38;;;14.94;52.84
3294;BME280;1659;51.470;6.770;2023-03-03T13:37:52;102341.78;;;15.57;51.65
3294;BME280;1659;51.470;6.770;2023-03-03T13:40:24;102345.94;;;15.80;50.30
3294;BME280;1659;51.470;6.770;2023-03-03T13:42:58;102342.38;;;15.79;49.98
3294;BME280;1659;51.470;6.770;2023-03-03T13:45:31;102333.44;;;15.83;49.69
3294;BME280;1659;51.470;6.770;2023-03-03T13:48:05;102333.47;;;16.33;48.73